Time;durP1;ratioP1;P1;durP2;ratioP2;P2;SDS_P1;SDS_P2;PMS_P1;PMS_P2;Temp;Humidity;BMP_temperature;BMP_pressure;BME280_temperature;BME280_humidity;BME280_pressure;Samples;Min_cycle;Max_cycle;Signal;HPM_P1;HPM_P2
2022/05/22 00:00:33;;;;;;;8.27;2.90;;;13.60;99.90;;;;;;5038125;28;20045;-58
2022/05/22 00:02:59;;;;;;;6.90;2.58;;;13.60;99.90;;;;;;5045073;28;20172;-59
2022/05/22 00:05:26;;;;;;;8.95;2.65;;;13.60;99.90;;;;;;5037198;28;20541;-58
2022/05/22 00:07:53;;;;;;;11.80;2.47;;;13.50;99.90;;;;;;5041442;28;20071;-58
2022/05/22 00:10:20;;;;;;;12.52;3.35;;;13.50;99.90;;;;;;5048387;28;20144;-59
2022/05/22 00:12:47;;;;;;;13.18;2.75;;;13.50;99.90;;;;;;5079824;28;20119;-58
2022/05/22 00:15:14;;;;;;;16.02;3.22;;;13.60;99.90;;;;;;5048618;28;20055;-58
2022/05/22 00:17:41;;;;;;;10.85;2.80;;;13.60;99.90;;;;;;5043323;28;20130;-58
2022/05/22 00:20:09;;;;;;;10.05;2.40;;;13.50;99.90;;;;;;5045291;28;20136;-58
2022/05/22 00:22:36;;;;;;;15.13;3.88;;;13.50;99.90;;;;;;5039527;28;20072;-59
2022/05/22 00:25:05;;;;;;;10.85;2.63;;;13.50;99.90;;;;;;5037149;28;20850;-57
2022/05/22 00:27:32;;;;;;;11.80;3.80;;;13.50;99.90;;;;;;5037504;28;20094;-57
2022/05/22 00:29:59;;;;;;;7.22;2.88;;;13.40;99.90;;;;;;5047567;28;20098;-59
2022/05/22 00:32:26;;;;;;;11.63;3.55;;;13.40;99.90;;;;;;5036398;28;20492;-58
2022/05/22 00:34:53;;;;;;;8.20;2.42;;;13.30;99.90;;;;;;5047597;28;20049;-56
2022/05/22 00:37:20;;;;;;;13.57;2.75;;;13.30;99.90;;;;;;5047738;28;20111;-57
2022/05/22 00:39:47;;;;;;;8.02;2.30;;;13.30;99.90;;;;;;5046399;28;20048;-58
2022/05/22 00:42:18;;;;;;;8.60;2.30;;;13.30;99.90;;;;;;5047551;28;20072;-58
2022/05/22 00:44:45;;;;;;;8.70;2.30;;;13.00;99.90;;;;;;5046986;28;20052;-58
2022/05/22 00:47:11;;;;;;;8.48;2.42;;;13.00;99.90;;;;;;5047940;28;20072;-58
2022/05/22 00:49:41;;;;;;;12.45;3.10;;;13.00;99.90;;;;;;5046881;28;20098;-59
2022/05/22 00:52:14;;;;;;;8.50;2.50;;;13.00;99.90;;;;;;5041170;28;20068;-57
2022/05/22 00:54:58;;;;;;;12.50;3.03;;;13.00;99.90;;;;;;5046726;28;20199;-56
2022/05/22 00:57:36;;;;;;;16.30;5.25;;;13.00;99.90;;;;;;5079828;28;20053;-56
2022/05/22 01:00:09;;;;;;;7.38;2.58;;;13.00;99.90;;;;;;4723926;28;10000150;-58
2022/05/22 01:05:21;;;;;;;13.52;3.22;;;12.80;99.90;;;;;;5045194;28;20110;-58
2022/05/22 01:07:48;;;;;;;12.20;2.72;;;12.80;99.90;;;;;;5027393;28;20663;-55
2022/05/22 01:10:15;;;;;;;11.88;3.28;;;12.70;99.90;;;;;;5043054;28;20115;-57
2022/05/22 01:12:42;;;;;;;11.65;2.88;;;12.70;99.90;;;;;;5046672;28;20095;-58
2022/05/22 01:15:11;;;;;;;6.93;2.70;;;12.70;99.90;;;;;;5076999;28;20095;-57
2022/05/22 01:17:42;;;;;;;14.65;3.40;;;12.80;99.90;;;;;;5045019;28;20049;-58
2022/05/22 01:20:09;;;;;;;7.47;2.35;;;12.80;99.90;;;;;;5039413;28;20138;-57
2022/05/22 01:22:36;;;;;;;15.45;3.03;;;12.80;99.90;;;;;;5047049;28;20048;-58
2022/05/22 01:25:04;;;;;;;10.00;2.53;;;12.80;99.90;;;;;;5046666;28;20136;-56
2022/05/22 01:27:30;;;;;;;10.13;2.72;;;12.70;99.90;;;;;;5047109;28;20088;-56
2022/05/22 01:30:13;;;;;;;9.20;2.92;;;12.70;99.90;;;;;;5077382;28;20056;-58
2022/05/22 01:32:41;;;;;;;9.10;2.70;;;12.70;99.90;;;;;;5031281;28;20080;-58
2022/05/22 01:35:10;;;;;;;15.73;3.42;;;12.70;99.90;;;;;;5040880;28;20064;-56
2022/05/22 01:37:37;;;;;;;21.55;7.70;;;12.70;99.90;;;;;;5046906;28;20049;-57
2022/05/22 01:40:05;;;;;;;16.92;5.90;;;12.70;99.90;;;;;;5046792;28;20040;-59
2022/05/22 01:42:31;;;;;;;47.90;15.68;;;12.70;99.90;;;;;;5046715;28;20528;-57
2022/05/22 01:44:58;;;;;;;37.50;11.70;;;12.70;99.90;;;;;;5046324;28;20037;-57
2022/05/22 01:47:25;;;;;;;13.52;5.35;;;12.60;99.90;;;;;;5047074;28;20084;-56
2022/05/22 01:49:52;;;;;;;14.77;5.40;;;12.50;99.90;;;;;;5046567;28;20144;-55
2022/05/22 01:52:18;;;;;;;6.50;2.78;;;12.40;99.90;;;;;;5046416;28;20060;-58
2022/05/22 01:54:46;;;;;;;7.80;2.88;;;12.30;99.90;;;;;;5048647;28;20140;-55
2022/05/22 01:57:13;;;;;;;14.68;2.60;;;12.30;99.90;;;;;;5050868;28;20104;-58
2022/05/22 01:59:39;;;;;;;7.45;2.88;;;12.30;99.90;;;;;;5050790;28;20136;-56
2022/05/22 02:02:06;;;;;;;6.53;2.38;;;12.20;99.90;;;;;;5043455;28;20046;-56
2022/05/22 02:04:33;;;;;;;8.93;2.47;;;12.20;99.90;;;;;;5049725;28;20061;-54
2022/05/22 02:09:46;;;;;;;14.40;3.25;;;12.10;99.90;;;;;;5050586;28;20057;-55
2022/05/22 02:12:13;;;;;;;7.93;2.35;;;12.10;99.90;;;;;;5050415;28;20088;-57
2022/05/22 02:14:40;;;;;;;29.13;9.35;;;12.10;99.90;;;;;;5050220;28;20103;-57
2022/05/22 02:17:07;;;;;;;34.72;12.23;;;12.10;99.90;;;;;;5047205;28;20087;-56
2022/05/22 02:19:33;;;;;;;15.13;5.80;;;12.00;99.90;;;;;;5049618;28;20197;-55
2022/05/22 02:22:00;;;;;;;10.00;4.30;;;12.00;99.90;;;;;;5049458;28;20068;-60
2022/05/22 02:24:27;;;;;;;9.80;2.55;;;12.00;99.90;;;;;;5050119;28;20059;-58
2022/05/22 02:26:54;;;;;;;9.25;2.45;;;12.00;99.90;;;;;;5049881;28;20110;-57
2022/05/22 02:29:21;;;;;;;5.22;1.80;;;12.00;99.90;;;;;;5050457;28;20073;-57
2022/05/22 02:31:48;;;;;;;9.90;2.38;;;11.90;99.90;;;;;;5074334;28;20081;-57
2022/05/22 02:34:15;;;;;;;8.70;2.10;;;11.90;99.90;;;;;;5050382;28;20708;-56
2022/05/22 02:36:41;;;;;;;12.80;2.50;;;11.80;99.90;;;;;;5049707;28;20468;-54
2022/05/22 02:39:08;;;;;;;6.05;2.47;;;11.80;99.90;;;;;;5082484;28;20103;-58
2022/05/22 02:41:35;;;;;;;8.45;2.40;;;11.80;99.90;;;;;;5050597;28;20587;-57
2022/05/22 02:44:02;;;;;;;13.23;3.13;;;11.80;99.90;;;;;;5049849;28;20045;-58
2022/05/22 02:46:29;;;;;;;12.23;2.88;;;11.80;99.90;;;;;;5050303;28;20110;-57
2022/05/22 02:48:55;;;;;;;6.57;1.98;;;11.80;99.90;;;;;;5049673;28;20134;-57
2022/05/22 02:51:22;;;;;;;7.95;2.85;;;11.80;99.90;;;;;;5049885;28;20080;-58
2022/05/22 02:53:49;;;;;;;7.32;2.30;;;11.80;99.90;;;;;;5048429;28;20132;-57
2022/05/22 02:56:17;;;;;;;8.95;2.38;;;11.70;99.90;;;;;;5048878;28;20551;-57
2022/05/22 02:58:44;;;;;;;6.65;1.85;;;11.60;99.90;;;;;;5049337;28;20041;-57
2022/05/22 03:01:11;;;;;;;6.45;2.03;;;11.60;99.90;;;;;;5043303;28;20136;-56
2022/05/22 03:03:38;;;;;;;4.20;1.80;;;11.60;99.90;;;;;;5045331;28;20083;-58
2022/05/22 03:08:50;;;;;;;7.43;3.13;;;11.50;99.90;;;;;;5048983;28;20471;-54
2022/05/22 03:11:17;;;;;;;7.15;2.85;;;11.50;99.90;;;;;;5049777;28;20575;-59
2022/05/22 03:13:44;;;;;;;12.85;2.53;;;11.50;99.90;;;;;;5048861;28;20049;-54
2022/05/22 03:16:11;;;;;;;5.00;2.17;;;11.60;99.90;;;;;;5049657;28;20573;-57
2022/05/22 03:18:38;;;;;;;8.57;2.45;;;11.50;99.90;;;;;;5049110;28;20468;-57
2022/05/22 03:21:05;;;;;;;7.20;2.08;;;11.50;99.90;;;;;;5049463;28;20084;-56
2022/05/22 03:23:31;;;;;;;5.82;1.90;;;11.50;99.90;;;;;;5081217;28;20081;-57
2022/05/22 03:25:58;;;;;;;4.20;1.88;;;11.50;99.90;;;;;;5048988;28;20151;-57
2022/05/22 03:28:25;;;;;;;7.07;2.40;;;11.50;99.90;;;;;;5049135;28;20037;-57
2022/05/22 03:30:52;;;;;;;8.48;2.22;;;11.40;99.90;;;;;;5076689;28;20041;-58
2022/05/22 03:33:18;;;;;;;14.52;2.83;;;11.40;99.90;;;;;;5033292;28;20071;-57
2022/05/22 03:35:45;;;;;;;9.07;2.38;;;11.30;99.90;;;;;;5048711;28;20080;-57
2022/05/22 03:38:12;;;;;;;4.45;1.92;;;11.30;99.90;;;;;;5049335;28;20085;-57
2022/05/22 03:40:42;;;;;;;9.55;1.90;;;11.40;99.90;;;;;;5048549;28;20049;-58
2022/05/22 03:43:09;;;;;;;10.82;3.65;;;11.30;99.90;;;;;;5064156;28;20041;-57
2022/05/22 03:45:35;;;;;;;4.47;1.85;;;11.30;99.90;;;;;;5049080;28;20092;-58
2022/05/22 03:48:03;;;;;;;9.15;2.85;;;11.40;99.90;;;;;;5048897;28;20147;-60
2022/05/22 03:50:30;;;;;;;8.40;2.00;;;11.40;99.90;;;;;;5048478;28;20507;-51
2022/05/22 03:52:57;;;;;;;5.50;2.08;;;11.30;99.90;;;;;;5048483;28;20103;-55
2022/05/22 03:55:23;;;;;;;5.53;1.63;;;11.30;99.90;;;;;;5048682;28;20081;-57
2022/05/22 03:57:51;;;;;;;9.40;2.78;;;11.20;99.90;;;;;;5048718;28;20052;-56
2022/05/22 04:00:20;;;;;;;6.65;2.45;;;11.20;99.90;;;;;;5048687;28;20045;-58
2022/05/22 04:02:46;;;;;;;4.38;2.03;;;11.20;99.90;;;;;;5034818;28;20076;-58
2022/05/22 04:05:13;;;;;;;7.03;2.17;;;11.20;99.90;;;;;;5037559;28;20103;-58
2022/05/22 04:07:44;;;;;;;5.75;2.40;;;11.20;99.90;;;;;;5048484;28;20132;-58
2022/05/22 04:10:13;;;;;;;9.65;3.45;;;11.20;99.90;;;;;;5079294;28;20490;-58
2022/05/22 04:12:42;;;;;;;10.82;2.70;;;11.10;99.90;;;;;;5037357;28;20041;-55
2022/05/22 04:15:10;;;;;;;10.68;2.58;;;11.10;99.90;;;;;;5045616;28;20045;-56
2022/05/22 04:17:37;;;;;;;5.72;2.88;;;11.20;99.90;;;;;;5045955;28;20133;-57
2022/05/22 04:20:07;;;;;;;13.63;2.22;;;11.20;99.90;;;;;;5040147;28;20045;-52
2022/05/22 04:25:10;;;;;;;7.10;2.17;;;11.20;99.90;;;;;;5044781;28;20132;-58
2022/05/22 04:25:21;;;;;;;8.68;2.03;;;11.20;99.90;;;;;;5048081;28;20109;-56
2022/05/22 04:27:48;;;;;;;8.05;2.25;;;11.20;99.90;;;;;;5047958;28;20530;-51
2022/05/22 04:30:18;;;;;;;13.45;2.30;;;11.20;99.90;;;;;;5048213;28;20491;-55
2022/05/22 04:32:49;;;;;;;7.05;2.50;;;11.30;99.90;;;;;;5047922;28;20040;-57
2022/05/22 04:35:17;;;;;;;4.65;1.90;;;11.30;99.90;;;;;;5048132;28;20045;-55
2022/05/22 04:37:44;;;;;;;8.07;2.22;;;11.30;99.90;;;;;;5078884;28;20563;-55
2022/05/22 04:40:11;;;;;;;4.57;2.50;;;11.30;99.90;;;;;;5048337;28;20053;-57
2022/05/22 04:42:38;;;;;;;6.78;2.63;;;11.30;99.90;;;;;;5047604;28;20073;-57
2022/05/22 04:45:05;;;;;;;5.78;1.98;;;11.30;99.90;;;;;;5048091;28;20057;-57
2022/05/22 04:47:39;;;;;;;7.85;2.13;;;11.40;99.90;;;;;;5047719;28;20076;-56
2022/05/22 04:50:06;;;;;;;9.07;3.28;;;11.40;99.90;;;;;;5048155;28;20053;-57
2022/05/22 04:52:33;;;;;;;6.03;2.65;;;11.40;99.90;;;;;;5079658;28;20068;-56
2022/05/22 04:55:00;;;;;;;9.30;2.80;;;11.40;99.90;;;;;;5041426;28;20049;-55
2022/05/22 04:57:27;;;;;;;9.80;2.38;;;11.40;99.90;;;;;;5047704;28;20099;-57
2022/05/22 04:59:53;;;;;;;8.73;2.95;;;11.40;99.90;;;;;;5047385;28;20669;-56
2022/05/22 05:02:22;;;;;;;8.13;2.38;;;11.40;99.90;;;;;;5041589;28;20132;-56
2022/05/22 05:04:53;;;;;;;7.03;2.55;;;11.40;99.90;;;;;;5079355;28;20096;-56
2022/05/22 05:07:21;;;;;;;9.20;3.75;;;11.40;99.90;;;;;;5047304;28;20103;-54
2022/05/22 05:09:48;;;;;;;7.90;3.13;;;11.40;99.90;;;;;;5047231;28;20088;-54
2022/05/22 05:12:15;;;;;;;12.75;3.83;;;11.50;99.90;;;;;;5047195;28;20618;-56
2022/05/22 05:14:42;;;;;;;6.07;2.70;;;11.50;99.90;;;;;;5047076;28;20567;-57
2022/05/22 05:17:14;;;;;;;8.75;2.20;;;11.50;99.90;;;;;;5047320;28;20488;-57
2022/05/22 05:19:41;;;;;;;7.60;2.75;;;11.50;99.90;;;;;;5047129;28;20135;-58
2022/05/22 05:22:08;;;;;;;11.63;2.33;;;11.50;99.90;;;;;;5046812;28;20504;-57
2022/05/22 05:24:35;;;;;;;5.03;2.35;;;11.60;99.90;;;;;;5047429;28;20128;-56
2022/05/22 05:27:01;;;;;;;7.30;2.00;;;11.50;99.90;;;;;;5046847;28;20526;-57
2022/05/22 05:29:48;;;;;;;7.47;2.80;;;11.60;99.90;;;;;;5046691;28;20055;-57
2022/05/22 05:32:18;;;;;;;2.85;2.20;;;11.60;99.90;;;;;;5035755;28;20139;-57
2022/05/22 05:34:45;;;;;;;4.72;2.63;;;11.60;99.90;;;;;;5046638;28;20079;-58
2022/05/22 05:37:12;;;;;;;7.13;2.60;;;11.60;99.90;;;;;;5047254;28;20147;-57
2022/05/22 05:39:39;;;;;;;7.85;2.55;;;11.70;99.90;;;;;;5046579;28;20049;-57
2022/05/22 05:42:06;;;;;;;7.57;2.88;;;11.70;99.90;;;;;;5047307;28;20049;-57
2022/05/22 05:44:33;;;;;;;5.07;1.83;;;11.80;99.90;;;;;;5047020;28;20045;-57
2022/05/22 05:47:01;;;;;;;9.65;2.08;;;11.80;99.90;;;;;;5046934;28;20057;-56
2022/05/22 05:49:28;;;;;;;12.57;2.42;;;11.90;99.90;;;;;;5041736;28;20083;-56
2022/05/22 05:51:55;;;;;;;5.32;2.40;;;11.90;99.90;;;;;;5039648;28;20148;-55
2022/05/22 05:54:34;;;;;;;6.70;2.50;;;12.00;99.90;;;;;;5041655;28;20072;-57
2022/05/22 05:57:01;;;;;;;8.15;2.58;;;12.10;99.90;;;;;;5046690;28;20136;-58
2022/05/22 05:59:28;;;;;;;6.72;2.80;;;12.10;99.90;;;;;;5045073;28;20135;-55
2022/05/22 06:01:55;;;;;;;14.30;2.65;;;12.20;99.90;;;;;;5038789;28;20080;-56
2022/05/22 06:04:21;;;;;;;13.00;6.10;;;12.30;99.90;;;;;;5043557;28;20084;-56
2022/05/22 06:06:48;;;;;;;5.88;2.20;;;12.40;99.90;;;;;;5046509;28;20045;-59
2022/05/22 06:09:15;;;;;;;13.00;2.67;;;12.50;99.90;;;;;;5046422;28;20045;-59
2022/05/22 06:11:43;;;;;;;4.30;2.63;;;12.50;99.90;;;;;;5045240;28;20099;-58
2022/05/22 06:14:10;;;;;;;10.20;2.75;;;12.70;99.90;;;;;;5041287;28;20037;-57
2022/05/22 06:16:37;;;;;;;4.13;2.20;;;12.70;99.90;;;;;;5046391;28;20136;-57
2022/05/22 06:19:04;;;;;;;7.60;2.50;;;12.80;99.90;;;;;;5040741;28;20037;-56
2022/05/22 06:21:31;;;;;;;6.95;2.40;;;12.90;99.90;;;;;;5042042;28;20074;-57
2022/05/22 06:23:58;;;;;;;10.95;3.03;;;13.00;99.90;;;;;;5046237;28;20095;-55
2022/05/22 06:26:24;;;;;;;7.57;2.30;;;13.10;99.90;;;;;;5046640;28;20178;-57
2022/05/22 06:28:51;;;;;;;8.50;2.70;;;13.10;99.90;;;;;;5046309;28;20507;-57
2022/05/22 06:31:18;;;;;;;8.18;2.63;;;13.20;99.90;;;;;;5046278;28;20099;-57
2022/05/22 06:33:45;;;;;;;13.70;3.55;;;13.30;99.90;;;;;;5046141;28;20049;-56
2022/05/22 06:36:14;;;;;;;10.25;2.60;;;13.40;99.90;;;;;;5045592;28;20053;-56
2022/05/22 06:41:26;;;;;;;11.68;3.30;;;13.50;99.90;;;;;;5048964;28;20144;-57
2022/05/22 06:43:53;;;;;;;8.90;2.58;;;13.60;99.90;;;;;;5050022;28;20486;-56
2022/05/22 06:46:25;;;;;;;12.23;2.42;;;13.70;99.90;;;;;;5042203;28;20099;-60
2022/05/22 06:48:52;;;;;;;9.50;2.80;;;13.80;99.90;;;;;;5047268;28;20119;-58
2022/05/22 06:51:19;;;;;;;7.75;2.55;;;13.90;99.90;;;;;;5049123;28;20084;-58
2022/05/22 06:53:46;;;;;;;14.18;3.17;;;13.90;99.90;;;;;;5049172;28;20049;-57
2022/05/22 06:56:12;;;;;;;15.43;3.40;;;14.00;99.90;;;;;;5049501;28;20498;-57
2022/05/22 06:58:39;;;;;;;14.07;3.10;;;14.10;99.90;;;;;;5047035;28;20139;-57
2022/05/22 07:01:06;;;;;;;10.10;2.17;;;14.20;99.90;;;;;;5032464;28;20087;-55
2022/05/22 07:03:40;;;;;;;9.65;2.45;;;14.30;99.90;;;;;;5037945;28;20164;-57
2022/05/22 07:06:07;;;;;;;10.77;3.42;;;14.40;99.90;;;;;;5046545;28;20048;-56
2022/05/22 07:08:33;;;;;;;7.93;2.08;;;14.60;99.90;;;;;;5049097;28;20111;-59
2022/05/22 07:13:45;;;;;;;11.30;2.88;;;14.80;99.90;;;;;;5048438;28;20083;-58
2022/05/22 07:16:12;;;;;;;14.27;5.57;;;14.90;99.90;;;;;;5044347;28;20135;-57
2022/05/22 07:18:54;;;;;;;6.43;1.50;;;15.00;99.90;;;;;;5041766;28;20050;-57
2022/05/22 07:21:21;;;;;;;11.18;1.58;;;15.20;99.90;;;;;;5048812;28;20067;-58
2022/05/22 07:23:48;;;;;;;9.00;2.65;;;15.30;99.90;;;;;;5048239;28;20053;-58
2022/05/22 07:26:16;;;;;;;7.32;1.73;;;15.40;99.90;;;;;;5047048;28;20096;-57
2022/05/22 07:28:42;;;;;;;6.07;1.30;;;15.50;99.90;;;;;;5042116;28;20127;-58
2022/05/22 07:31:20;;;;;;;6.13;1.15;;;15.50;99.90;;;;;;5040994;28;20046;-56
2022/05/22 07:33:47;;;;;;;8.30;1.67;;;15.50;99.90;;;;;;5079197;28;20072;-58
2022/05/22 07:36:14;;;;;;;13.35;2.22;;;15.60;99.90;;;;;;5048704;28;20081;-57
2022/05/22 07:38:41;;;;;;;14.43;2.42;;;15.70;99.90;;;;;;5047960;28;20041;-56
2022/05/22 07:41:08;;;;;;;7.82;2.15;;;15.60;99.90;;;;;;5048899;28;20504;-57
2022/05/22 07:43:35;;;;;;;5.15;1.83;;;15.70;99.90;;;;;;5048635;28;20408;-58
2022/05/22 07:46:02;;;;;;;8.25;1.83;;;15.80;99.90;;;;;;5042584;28;20075;-57
2022/05/22 07:48:34;;;;;;;9.77;1.70;;;15.80;99.90;;;;;;5046752;28;20052;-57
2022/05/22 07:51:02;;;;;;;4.72;1.90;;;15.90;99.90;;;;;;5047068;28;20128;-56
2022/05/22 07:53:29;;;;;;;3.40;1.67;;;15.90;99.90;;;;;;5046848;28;20503;-57
2022/05/22 07:55:56;;;;;;;6.70;1.48;;;16.00;99.90;;;;;;5045292;28;20155;-56
2022/05/22 07:58:24;;;;;;;7.13;1.85;;;16.10;99.90;;;;;;5047917;28;20446;-57
2022/05/22 08:00:50;;;;;;;6.60;1.25;;;16.10;99.90;;;;;;5048393;28;20131;-57
2022/05/22 08:03:17;;;;;;;8.55;1.60;;;16.30;99.90;;;;;;5048250;28;20045;-59
2022/05/22 08:05:44;;;;;;;6.30;1.17;;;16.40;99.90;;;;;;5048199;28;20084;-59
2022/05/22 08:08:11;;;;;;;9.02;1.50;;;16.40;99.90;;;;;;5048494;28;20094;-54
2022/05/22 08:10:39;;;;;;;3.60;1.20;;;16.50;99.90;;;;;;5046708;28;20084;-55
2022/05/22 08:13:06;;;;;;;8.82;1.88;;;16.50;99.90;;;;;;5041141;28;20432;-55
2022/05/22 08:15:33;;;;;;;5.82;1.25;;;16.50;99.90;;;;;;5037901;28;20731;-59
2022/05/22 08:18:00;;;;;;;7.20;3.05;;;16.60;99.90;;;;;;5045693;28;20059;-59
2022/05/22 08:20:27;;;;;;;10.23;3.55;;;16.60;99.90;;;;;;5048083;28;20132;-58
2022/05/22 08:22:58;;;;;;;7.10;1.08;;;16.70;99.90;;;;;;5047860;28;20049;-57
2022/05/22 08:25:26;;;;;;;10.73;2.22;;;16.80;99.90;;;;;;5048158;28;20079;-58
2022/05/22 08:27:53;;;;;;;7.75;1.70;;;16.80;99.90;;;;;;5079910;28;20052;-60
2022/05/22 08:30:20;;;;;;;9.65;1.60;;;16.90;99.90;;;;;;5047770;28;20084;-58
2022/05/22 08:32:48;;;;;;;7.93;2.40;;;16.90;99.90;;;;;;5047950;28;20044;-59
2022/05/22 08:35:23;;;;;;;2.92;1.30;;;16.90;99.90;;;;;;5047698;28;20088;-58
2022/05/22 08:37:49;;;;;;;3.80;1.33;;;17.00;99.90;;;;;;5027936;28;20049;-59
2022/05/22 08:40:17;;;;;;;5.15;1.27;;;17.00;99.90;;;;;;5044043;28;20122;-57
2022/05/22 08:42:47;;;;;;;10.15;1.80;;;17.10;99.90;;;;;;5065348;28;20611;-58
2022/05/22 08:45:19;;;;;;;5.18;1.50;;;17.10;99.90;;;;;;5030338;28;20045;-57
2022/05/22 08:47:56;;;;;;;5.93;1.60;;;17.10;99.90;;;;;;5039553;28;20068;-58
2022/05/22 08:50:23;;;;;;;4.43;1.38;;;17.20;99.70;;;;;;5046266;28;20107;-57
2022/05/22 08:53:24;;;;;;;14.25;1.50;;;17.20;99.90;;;;;;5045493;28;20080;-59
2022/05/22 08:58:58;;;;;;;11.40;2.28;;;17.30;99.90;;;;;;5054439;28;20073;-58
2022/05/22 09:01:51;;;;;;;13.45;1.67;;;17.40;99.90;;;;;;5058758;28;20135;-56
2022/05/22 09:04:33;;;;;;;6.10;1.63;;;17.50;99.10;;;;;;5075067;28;20087;-57
2022/05/22 09:07:20;;;;;;;8.50;1.42;;;17.60;99.50;;;;;;5041556;28;20049;-57
2022/05/22 09:10:11;;;;;;;9.48;1.70;;;17.80;99.90;;;;;;5044981;28;20044;-56
2022/05/22 09:12:44;;;;;;;10.40;1.95;;;17.80;98.90;;;;;;5045679;28;20144;-55
2022/05/22 09:15:47;;;;;;;16.08;2.38;;;17.90;99.90;;;;;;5046930;28;20124;-55
2022/05/22 09:18:22;;;;;;;6.47;1.58;;;17.90;98.30;;;;;;5028685;28;20044;-57
2022/05/22 09:20:56;;;;;;;9.25;1.50;;;18.00;99.50;;;;;;5046457;28;20120;-56
2022/05/22 09:23:29;;;;;;;5.53;1.55;;;18.20;99.20;;;;;;5046919;28;20049;-57
2022/05/22 09:26:33;;;;;;;7.57;1.85;;;18.30;98.50;;;;;;5046363;28;20140;-56
2022/05/22 09:29:37;;;;;;;10.57;1.83;;;18.40;96.60;;;;;;5078987;28;20122;-55
2022/05/22 09:32:20;;;;;;;;;;;18.40;95.30;;;;;;5046887;28;20048;-58
2022/05/22 09:34:59;;;;;;;9.25;2.72;;;18.30;96.50;;;;;;5041935;28;20121;-56
2022/05/22 09:37:47;;;;;;;9.25;1.95;;;18.40;98.20;;;;;;5060960;28;20099;-54
2022/05/22 09:40:20;;;;;;;5.57;1.77;;;18.50;97.40;;;;;;5046863;28;20079;-55
2022/05/22 09:43:21;;;;;;;6.10;2.10;;;18.60;98.00;;;;;;5046351;28;20041;-56
2022/05/22 09:46:16;;;;;;;8.63;1.83;;;18.60;96.20;;;;;;5046373;28;20143;-56
2022/05/22 09:48:56;;;;;;;7.95;2.20;;;18.70;96.10;;;;;;5076570;28;20103;-56
2022/05/22 09:51:29;;;;;;;;;;;18.80;97.20;;;;;;5078634;28;20102;-55
2022/05/22 09:54:14;;;;;;;11.60;1.90;;;18.90;94.70;;;;;;5046198;28;19974;-53
2022/05/22 09:57:37;;;;;;;8.48;1.50;;;18.90;96.40;;;;;;5046058;28;20045;-54
2022/05/22 10:00:16;;;;;;;10.63;1.60;;;19.10;95.30;;;;;;5046271;28;20115;-55
2022/05/22 10:02:49;;;;;;;7.43;2.20;;;19.40;93.60;;;;;;5076181;28;20044;-56
2022/05/22 10:05:33;;;;;;;10.68;3.38;;;19.70;93.50;;;;;;5046115;28;20072;-56
2022/05/22 10:08:13;;;;;;;8.48;1.58;;;20.00;95.20;;;;;;5045534;28;20092;-56
2022/05/22 10:10:45;;;;;;;5.93;1.85;;;20.40;95.60;;;;;;5046407;28;20052;-55
2022/05/22 10:13:33;;;;;;;7.85;1.67;;;20.80;93.80;;;;;;5077377;28;20240;-57
2022/05/22 10:16:16;;;;;;;6.38;1.52;;;21.20;92.40;;;;;;5034845;28;20719;-53
2022/05/22 10:18:53;;;;;;;7.53;1.90;;;21.50;91.50;;;;;;5045343;28;20045;-56
2022/05/22 10:21:23;;;;;;;8.23;2.10;;;21.40;91.90;;;;;;5049578;28;20056;-56
2022/05/22 10:24:05;;;;;;;12.13;2.08;;;21.50;90.30;;;;;;5049622;28;20131;-52
2022/05/22 10:26:49;;;;;;;7.25;2.05;;;21.70;90.30;;;;;;5061363;28;20045;-53
2022/05/22 10:29:31;;;;;;;8.13;1.80;;;22.10;90.10;;;;;;5049128;28;20076;-56
2022/05/22 10:32:09;;;;;;;5.50;1.42;;;22.30;92.50;;;;;;5073169;28;20147;-57
2022/05/22 10:34:56;;;;;;;4.47;1.77;;;22.50;87.60;;;;;;5044842;28;20054;-54
2022/05/22 10:37:32;;;;;;;9.60;2.85;;;22.40;90.70;;;;;;5046377;28;20225;-55
2022/05/22 10:40:01;;;;;;;5.78;1.70;;;22.30;89.10;;;;;;5046995;28;20389;-54
2022/05/22 10:42:47;;;;;;;7.50;1.70;;;22.10;88.80;;;;;;5047628;28;20488;-54
2022/05/22 10:45:22;;;;;;;6.38;1.40;;;22.00;90.10;;;;;;5045782;28;20056;-55
2022/05/22 10:47:50;;;;;;;6.93;1.58;;;22.00;86.20;;;;;;5047860;28;20055;-55
2022/05/22 10:50:20;;;;;;;4.72;1.63;;;22.00;87.70;;;;;;5048687;28;20084;-56
2022/05/22 10:52:46;;;;;;;6.90;1.75;;;21.70;90.20;;;;;;5048819;28;20076;-55
2022/05/22 10:55:24;;;;;;;8.57;1.88;;;21.50;90.60;;;;;;5048597;28;20076;-58
2022/05/22 10:57:59;;;;;;;7.90;2.65;;;21.30;90.30;;;;;;5045221;28;20080;-57
2022/05/22 11:00:26;;;;;;;7.18;1.42;;;21.20;91.00;;;;;;5045580;28;20124;-53
2022/05/22 11:02:54;;;;;;;6.95;2.15;;;21.10;90.80;;;;;;5048363;28;20057;-56
2022/05/22 11:05:26;;;;;;;7.43;1.80;;;20.90;90.50;;;;;;5043562;28;20520;-56
2022/05/22 11:07:55;;;;;;;8.10;2.28;;;20.80;90.90;;;;;;5047053;28;20091;-56
2022/05/22 11:10:37;;;;;;;9.38;1.83;;;20.80;91.20;;;;;;5045796;28;20084;-57
2022/05/22 11:13:05;;;;;;;5.88;1.50;;;20.80;90.80;;;;;;5047881;28;20488;-56
2022/05/22 11:15:34;;;;;;;6.72;1.50;;;20.70;91.20;;;;;;5049021;28;20076;-58
2022/05/22 11:18:09;;;;;;;8.60;1.75;;;20.80;91.00;;;;;;5049422;28;20044;-56
2022/05/22 11:20:48;;;;;;;5.20;1.30;;;20.80;90.80;;;;;;5044993;28;20083;-55
2022/05/22 11:23:27;;;;;;;3.47;1.67;;;20.80;90.80;;;;;;5081519;28;20072;-57
2022/05/22 11:26:15;;;;;;;4.88;1.70;;;20.80;87.30;;;;;;5048652;28;20057;-54
2022/05/22 11:28:57;;;;;;;6.65;1.58;;;20.60;90.90;;;;;;5028883;28;20047;-52
2022/05/22 11:31:41;;;;;;;4.82;1.48;;;20.70;91.30;;;;;;5047820;28;20061;-55
2022/05/22 11:34:37;;;;;;;6.93;1.75;;;20.80;90.30;;;;;;5040593;28;20049;-57
2022/05/22 11:37:25;;;;;;;7.78;1.80;;;20.80;90.40;;;;;;5048839;28;20045;-54
2022/05/22 11:39:57;;;;;;;7.20;1.33;;;20.80;90.80;;;;;;5048966;28;20440;-57
2022/05/22 11:42:38;;;;;;;5.88;1.27;;;20.90;90.60;;;;;;5081373;28;20049;-57
2022/05/22 11:45:32;;;;;;;6.32;1.58;;;21.00;86.60;;;;;;5074586;28;20049;-56
2022/05/22 11:48:23;;;;;;;6.90;1.67;;;21.00;88.20;;;;;;5043471;28;20049;-58
2022/05/22 11:50:59;;;;;;;5.28;1.98;;;21.20;88.40;;;;;;5044559;28;20045;-57
2022/05/22 11:53:36;;;;;;;5.07;1.85;;;21.20;88.90;;;;;;5073971;28;20050;-55
2022/05/22 11:56:09;;;;;;;7.70;1.73;;;21.30;88.20;;;;;;5039940;28;20052;-57
2022/05/22 11:58:49;;;;;;;6.00;1.57;;;21.30;88.00;;;;;;5046196;28;20126;-58
2022/05/22 12:01:23;;;;;;;8.77;2.67;;;21.30;89.90;;;;;;5046203;28;20077;-57
2022/05/22 12:03:52;;;;;;;;;;;21.30;89.30;;;;;;5040674;28;20076;-56
2022/05/22 12:06:38;;;;;;;9.77;2.90;;;21.40;82.90;;;;;;5042339;28;19921;-56
2022/05/22 12:09:42;;;;;;;11.18;3.80;;;21.30;87.70;;;;;;5048078;28;20103;-57
2022/05/22 12:12:17;;;;;;;;;;;21.30;85.10;;;;;;5043653;28;20053;-59
2022/05/22 12:15:02;;;;;;;8.50;2.03;;;21.20;86.40;;;;;;5060297;28;19975;-56
2022/05/22 12:17:35;;;;;;;6.88;1.67;;;21.40;87.30;;;;;;5044601;28;20173;-56
2022/05/22 12:20:10;;;;;;;6.47;1.98;;;21.40;90.30;;;;;;5048585;28;20080;-57
2022/05/22 12:23:10;;;;;;;5.68;2.00;;;21.50;89.00;;;;;;5046244;28;20056;-57
2022/05/22 12:26:00;;;;;;;15.40;3.92;;;21.60;86.40;;;;;;5027640;28;20081;-57
2022/05/22 12:28:49;;;;;;;5.97;1.20;;;21.70;85.10;;;;;;5046826;28;20128;-56
2022/05/22 12:31:25;;;;;;;6.28;1.65;;;21.50;83.00;;;;;;4710763;28;10000575;-62
2022/05/22 12:33:53;;;;;;;7.72;1.50;;;21.50;86.10;;;;;;5059452;28;20048;-54
2022/05/22 12:36:25;;;;;;;6.95;1.38;;;21.60;87.50;;;;;;5060213;28;20134;-56
2022/05/22 12:38:58;;;;;;;5.40;1.10;;;21.70;84.20;;;;;;5072790;28;20243;-57
2022/05/22 12:42:01;;;;;;;2.97;1.40;;;21.70;83.20;;;;;;5077214;28;20136;-56
2022/05/22 12:44:28;;;;;;;6.35;1.63;;;21.60;78.00;;;;;;5075014;28;20057;-57
2022/05/22 12:46:58;;;;;;;5.78;1.30;;;21.70;84.30;;;;;;5076453;28;20053;-60
2022/05/22 12:49:29;;;;;;;7.75;1.58;;;21.80;83.70;;;;;;5041565;28;20059;-56
2022/05/22 12:52:01;;;;;;;6.78;1.63;;;22.00;85.70;;;;;;5075446;28;20076;-57
2022/05/22 12:54:33;;;;;;;6.82;1.52;;;22.10;85.60;;;;;;5044112;28;20075;-56
2022/05/22 12:57:17;;;;;;;4.45;1.42;;;22.30;83.80;;;;;;5076325;28;20135;-58
2022/05/22 12:59:52;;;;;;;5.20;1.55;;;22.40;82.60;;;;;;5044572;28;20080;-55
2022/05/22 13:02:39;;;;;;;6.43;1.65;;;22.50;82.20;;;;;;5044363;28;20788;-55
2022/05/22 13:05:15;;;;;;;6.13;1.45;;;22.50;82.00;;;;;;5070690;28;20118;-58
2022/05/22 13:07:41;;;;;;;8.05;3.30;;;22.50;79.90;;;;;;5075656;28;20041;-58
2022/05/22 13:10:33;;;;;;;9.50;2.03;;;22.60;83.60;;;;;;5055860;28;20103;-56
2022/05/22 13:13:02;;;;;;;4.88;1.55;;;22.60;80.30;;;;;;5026281;28;20141;-56
2022/05/22 13:15:31;;;;;;;3.97;1.40;;;22.60;84.00;;;;;;5043384;28;20092;-56
2022/05/22 13:18:14;;;;;;;7.75;1.65;;;22.60;83.80;;;;;;5041591;28;20053;-57
2022/05/22 13:20:41;;;;;;;7.97;1.83;;;22.60;79.70;;;;;;5040551;28;20064;-63
2022/05/22 13:23:33;;;;;;;6.30;2.55;;;22.70;83.50;;;;;;5036026;28;20049;-56
2022/05/22 13:26:05;;;;;;;6.05;1.83;;;23.00;80.30;;;;;;5040318;28;20053;-57